AZU2663 SBPA-SBGL
Flight info
| Callsign | AZU2663 |
|---|---|
| Flight time | 1h 33m |
| Altitude | 35000 |
| Route | UBNUT UN857 AKNUB |
| Aircraft | E195/M-SDE3GILORVW/S |
Departure
| Time | 2026-05-04 02:31 |
|---|---|
| Airport | Porto Alegre-Salgado Filho International Airport (SBPA) |
Arrival
| Time | 2026-05-04 04:05 |
|---|---|
| Airport | Rio Galeão – Tom Jobim International Airport (SBGL) |
| Time | Latitude | Longitude | Altitude | Speed | Heading |
|---|---|---|---|---|---|
| 2026-05-04 01:56 | -29.99127 | -51.17448 | 14 ft | 0 kts | 358° |
| 2026-05-04 02:20 | -29.99130 | -51.17448 | 14 ft | 3 kts | 358° |
| 2026-05-04 02:21 | -29.99155 | -51.17443 | 15 ft | 4 kts | 331° |
| 2026-05-04 02:21 | -29.99173 | -51.17424 | 16 ft | 4 kts | 283° |
| 2026-05-04 02:21 | -29.99174 | -51.17410 | 18 ft | 1 kts | 271° |
| 2026-05-04 02:21 | -29.99174 | -51.17408 | 18 ft | 0 kts | 271° |
| 2026-05-04 02:25 | -29.99174 | -51.17409 | 14 ft | 1 kts | 271° |
| 2026-05-04 02:25 | -29.99174 | -51.17434 | 14 ft | 4 kts | 271° |
| 2026-05-04 02:25 | -29.99173 | -51.17474 | 14 ft | 6 kts | 271° |
| 2026-05-04 02:25 | -29.99172 | -51.17526 | 14 ft | 7 kts | 271° |
| 2026-05-04 02:26 | -29.99171 | -51.17588 | 14 ft | 8 kts | 271° |
| 2026-05-04 02:26 | -29.99169 | -51.17659 | 14 ft | 9 kts | 271° |
| 2026-05-04 02:26 | -29.99213 | -51.17698 | 14 ft | 9 kts | 184° |
| 2026-05-04 02:26 | -29.99273 | -51.17716 | 15 ft | 9 kts | 227° |
| 2026-05-04 02:27 | -29.99286 | -51.17789 | 15 ft | 10 kts | 273° |
| 2026-05-04 02:27 | -29.99282 | -51.17879 | 15 ft | 12 kts | 274° |
| 2026-05-04 02:27 | -29.99280 | -51.17976 | 15 ft | 13 kts | 261° |
| 2026-05-04 02:27 | -29.99309 | -51.18076 | 16 ft | 14 kts | 249° |
| 2026-05-04 02:28 | -29.99332 | -51.18144 | 15 ft | 0 kts | 249° |
| 2026-05-04 02:28 | -29.99333 | -51.18146 | 15 ft | 1 kts | 249° |
| 2026-05-04 02:28 | -29.99334 | -51.18149 | 15 ft | 0 kts | 249° |
| 2026-05-04 02:28 | -29.99334 | -51.18151 | 15 ft | 0 kts | 249° |
| 2026-05-04 02:29 | -29.99335 | -51.18152 | 15 ft | 1 kts | 249° |
| 2026-05-04 02:29 | -29.99341 | -51.18170 | 16 ft | 3 kts | 249° |
| 2026-05-04 02:29 | -29.99350 | -51.18200 | 15 ft | 5 kts | 249° |
| 2026-05-04 02:29 | -29.99368 | -51.18232 | 15 ft | 5 kts | 223° |
| 2026-05-04 02:30 | -29.99400 | -51.18248 | 16 ft | 5 kts | 203° |
| 2026-05-04 02:30 | -29.99432 | -51.18252 | 16 ft | 4 kts | 155° |
| 2026-05-04 02:30 | -29.99441 | -51.18221 | 16 ft | 6 kts | 91° |
| 2026-05-04 02:30 | -29.99444 | -51.18062 | 17 ft | 45 kts | 91° |
| 2026-05-04 02:31 | -29.99456 | -51.17475 | 14 ft | 101 kts | 91° |
| 2026-05-04 02:31 | -29.99476 | -51.16474 | 15 ft | 147 kts | 91° |
| 2026-05-04 02:31 | -29.99493 | -51.15179 | 273 ft | 167 kts | 91° |
| 2026-05-04 02:31 | -29.99486 | -51.13834 | 774 ft | 165 kts | 90° |
| 2026-05-04 02:32 | -29.99516 | -51.12514 | 1108 ft | 170 kts | 92° |
| 2026-05-04 02:32 | -29.99563 | -51.11102 | 1583 ft | 182 kts | 91° |
| 2026-05-04 02:32 | -29.99596 | -51.09601 | 2079 ft | 193 kts | 90° |
| 2026-05-04 02:32 | -29.99630 | -51.07993 | 2554 ft | 209 kts | 89° |
| 2026-05-04 02:33 | -29.99661 | -51.06222 | 2978 ft | 231 kts | 89° |
| 2026-05-04 02:33 | -29.99696 | -51.04326 | 3469 ft | 251 kts | 89° |
| 2026-05-04 02:33 | -29.99729 | -51.02244 | 4028 ft | 266 kts | 89° |
| 2026-05-04 02:33 | -29.99769 | -51.00082 | 4767 ft | 275 kts | 89° |
| 2026-05-04 02:34 | -29.99810 | -50.97840 | 5457 ft | 283 kts | 89° |
| 2026-05-04 02:34 | -29.99850 | -50.95548 | 6210 ft | 289 kts | 88° |
| 2026-05-04 02:34 | -29.99548 | -50.93270 | 6902 ft | 289 kts | 64° |
| 2026-05-04 02:34 | -29.98323 | -50.91483 | 7574 ft | 286 kts | 32° |
| 2026-05-04 02:35 | -29.96509 | -50.90638 | 8272 ft | 282 kts | 5° |
| 2026-05-04 02:35 | -29.94552 | -50.90564 | 8967 ft | 284 kts | 1° |
| 2026-05-04 02:35 | -29.92633 | -50.89879 | 9570 ft | 298 kts | 28° |
| 2026-05-04 02:35 | -29.90908 | -50.88502 | 10215 ft | 305 kts | 33° |
| 2026-05-04 02:36 | -29.89181 | -50.87055 | 10824 ft | 309 kts | 32° |
| 2026-05-04 02:36 | -29.87404 | -50.85635 | 11456 ft | 312 kts | 31° |
| 2026-05-04 02:36 | -29.85599 | -50.84225 | 12105 ft | 315 kts | 30° |
| 2026-05-04 02:36 | -29.83768 | -50.82811 | 12741 ft | 318 kts | 30° |
| 2026-05-04 02:37 | -29.81919 | -50.81387 | 13389 ft | 322 kts | 30° |
| 2026-05-04 02:37 | -29.80051 | -50.79950 | 14028 ft | 325 kts | 29° |
| 2026-05-04 02:37 | -29.78121 | -50.78468 | 14285 ft | 342 kts | 30° |
| 2026-05-04 02:37 | -29.76107 | -50.76910 | 14604 ft | 354 kts | 30° |
| 2026-05-04 02:38 | -29.74054 | -50.75321 | 15188 ft | 357 kts | 30° |
| 2026-05-04 02:38 | -29.71985 | -50.73722 | 15808 ft | 359 kts | 30° |
| 2026-05-04 02:38 | -29.69903 | -50.72109 | 16379 ft | 362 kts | 30° |
| 2026-05-04 02:38 | -29.67801 | -50.70489 | 16931 ft | 365 kts | 30° |
| 2026-05-04 02:39 | -29.65683 | -50.68855 | 17479 ft | 369 kts | 30° |
| 2026-05-04 02:39 | -29.63545 | -50.67204 | 18027 ft | 372 kts | 30° |
| 2026-05-04 02:39 | -29.61388 | -50.65543 | 18514 ft | 375 kts | 30° |
| 2026-05-04 02:39 | -29.59212 | -50.63866 | 18988 ft | 378 kts | 30° |
| 2026-05-04 02:40 | -29.57024 | -50.62181 | 19461 ft | 380 kts | 30° |
| 2026-05-04 02:40 | -29.54813 | -50.60487 | 19936 ft | 383 kts | 30° |
| 2026-05-04 02:40 | -29.52592 | -50.58778 | 20428 ft | 386 kts | 30° |
| 2026-05-04 02:40 | -29.50348 | -50.57052 | 20931 ft | 389 kts | 30° |
| 2026-05-04 02:41 | -29.48103 | -50.55295 | 21378 ft | 393 kts | 34° |
| 2026-05-04 02:41 | -29.45976 | -50.53292 | 21852 ft | 398 kts | 38° |
| 2026-05-04 02:41 | -29.43916 | -50.51223 | 22290 ft | 401 kts | 38° |
| 2026-05-04 02:41 | -29.41812 | -50.49110 | 22724 ft | 404 kts | 38° |
| 2026-05-04 02:42 | -29.39684 | -50.46990 | 23153 ft | 406 kts | 38° |
| 2026-05-04 02:42 | -29.37544 | -50.44862 | 23550 ft | 409 kts | 38° |
| 2026-05-04 02:42 | -29.35384 | -50.42720 | 23911 ft | 412 kts | 38° |
| 2026-05-04 02:42 | -29.33211 | -50.40567 | 24256 ft | 414 kts | 38° |
| 2026-05-04 02:43 | -29.31027 | -50.38404 | 24575 ft | 416 kts | 38° |
| 2026-05-04 02:43 | -29.28830 | -50.36232 | 24895 ft | 419 kts | 38° |
| 2026-05-04 02:43 | -29.26594 | -50.34087 | 25220 ft | 420 kts | 34° |
| 2026-05-04 02:43 | -29.24237 | -50.32099 | 25528 ft | 422 kts | 32° |
| 2026-05-04 02:44 | -29.21848 | -50.30127 | 25842 ft | 425 kts | 33° |
| 2026-05-04 02:44 | -29.19460 | -50.28126 | 26158 ft | 427 kts | 33° |
| 2026-05-04 02:44 | -29.17064 | -50.26098 | 26482 ft | 429 kts | 33° |
| 2026-05-04 02:44 | -29.14662 | -50.24054 | 26782 ft | 432 kts | 33° |
| 2026-05-04 02:45 | -29.12244 | -50.21995 | 27083 ft | 434 kts | 33° |
| 2026-05-04 02:45 | -29.09812 | -50.19924 | 27380 ft | 437 kts | 33° |
| 2026-05-04 02:45 | -29.07370 | -50.17848 | 27682 ft | 439 kts | 33° |
| 2026-05-04 02:45 | -29.04909 | -50.15753 | 27972 ft | 442 kts | 33° |
| 2026-05-04 02:46 | -29.02441 | -50.13653 | 28250 ft | 444 kts | 33° |
| 2026-05-04 02:46 | -28.99959 | -50.11545 | 28523 ft | 446 kts | 33° |
| 2026-05-04 02:46 | -28.97461 | -50.09430 | 28787 ft | 448 kts | 33° |
| 2026-05-04 02:46 | -28.94954 | -50.07300 | 29051 ft | 450 kts | 33° |
| 2026-05-04 02:47 | -28.92440 | -50.05165 | 29378 ft | 450 kts | 33° |
| 2026-05-04 02:47 | -28.89925 | -50.03030 | 29737 ft | 450 kts | 33° |
| 2026-05-04 02:47 | -28.87412 | -50.00900 | 30060 ft | 450 kts | 33° |
| 2026-05-04 02:47 | -28.84899 | -49.98774 | 30389 ft | 450 kts | 33° |
| 2026-05-04 02:48 | -28.82384 | -49.96646 | 30706 ft | 449 kts | 32° |
| 2026-05-04 02:48 | -28.79878 | -49.94527 | 31017 ft | 448 kts | 32° |
| 2026-05-04 02:48 | -28.77407 | -49.92438 | 31304 ft | 447 kts | 32° |
| 2026-05-04 02:48 | -28.74896 | -49.90358 | 31577 ft | 446 kts | 31° |
| 2026-05-04 02:49 | -28.72387 | -49.88290 | 31893 ft | 445 kts | 32° |
| 2026-05-04 02:49 | -28.69959 | -49.86085 | 32091 ft | 450 kts | 40° |
| 2026-05-04 02:49 | -28.68021 | -49.83264 | 32301 ft | 456 kts | 56° |
| 2026-05-04 02:49 | -28.66461 | -49.80120 | 32552 ft | 456 kts | 59° |
| 2026-05-04 02:50 | -28.64944 | -49.76950 | 32791 ft | 456 kts | 58° |
| 2026-05-04 02:50 | -28.63393 | -49.73798 | 32984 ft | 457 kts | 57° |
| 2026-05-04 02:50 | -28.61819 | -49.70658 | 33208 ft | 456 kts | 57° |
| 2026-05-04 02:50 | -28.60250 | -49.67530 | 33469 ft | 455 kts | 57° |
| 2026-05-04 02:51 | -28.58680 | -49.64406 | 33688 ft | 455 kts | 57° |
| 2026-05-04 02:51 | -28.57107 | -49.61279 | 33864 ft | 455 kts | 57° |
| 2026-05-04 02:51 | -28.55532 | -49.58157 | 34115 ft | 454 kts | 57° |
| 2026-05-04 02:51 | -28.53960 | -49.55044 | 34318 ft | 454 kts | 57° |
| 2026-05-04 02:52 | -28.52382 | -49.51926 | 34424 ft | 456 kts | 56° |
| 2026-05-04 02:52 | -28.50801 | -49.48800 | 34578 ft | 456 kts | 56° |
| 2026-05-04 02:52 | -28.49218 | -49.45672 | 34715 ft | 457 kts | 56° |
| 2026-05-04 02:52 | -28.47630 | -49.42540 | 34896 ft | 457 kts | 56° |
| 2026-05-04 02:53 | -28.46046 | -49.39408 | 35057 ft | 457 kts | 56° |
| 2026-05-04 02:53 | -28.44459 | -49.36275 | 35148 ft | 460 kts | 56° |
| 2026-05-04 02:53 | -28.41232 | -49.29911 | 35156 ft | 469 kts | 56° |
| 2026-05-04 02:54 | -28.37945 | -49.23435 | 35191 ft | 478 kts | 56° |
| 2026-05-04 02:54 | -28.34633 | -49.16918 | 35204 ft | 472 kts | 56° |
| 2026-05-04 02:55 | -28.29661 | -49.07157 | 35248 ft | 483 kts | 56° |
| 2026-05-04 02:56 | -28.25948 | -49.00775 | 35236 ft | 483 kts | 42° |
| 2026-05-04 02:56 | -28.21326 | -48.95164 | 35228 ft | 492 kts | 42° |
| 2026-05-04 02:57 | -28.16642 | -48.89429 | 35226 ft | 499 kts | 42° |
| 2026-05-04 02:57 | -28.12729 | -48.84570 | 35213 ft | 503 kts | 43° |
| 2026-05-04 02:58 | -28.08026 | -48.78689 | 35211 ft | 504 kts | 43° |
| 2026-05-04 02:58 | -28.03320 | -48.72804 | 35220 ft | 504 kts | 43° |
| 2026-05-04 02:59 | -27.98613 | -48.66927 | 35233 ft | 504 kts | 43° |
| 2026-05-04 02:59 | -27.93886 | -48.61061 | 35222 ft | 504 kts | 43° |
| 2026-05-04 03:00 | -27.89169 | -48.55173 | 35233 ft | 507 kts | 42° |
| 2026-05-04 03:00 | -27.84427 | -48.49273 | 35235 ft | 507 kts | 42° |
| 2026-05-04 03:01 | -27.79685 | -48.43386 | 35230 ft | 507 kts | 42° |
| 2026-05-04 03:01 | -27.74934 | -48.37496 | 35217 ft | 507 kts | 42° |
| 2026-05-04 03:02 | -27.70180 | -48.31610 | 35215 ft | 507 kts | 42° |
| 2026-05-04 03:02 | -27.65452 | -48.25781 | 35217 ft | 507 kts | 42° |
| 2026-05-04 03:03 | -27.60687 | -48.19922 | 35224 ft | 507 kts | 42° |
| 2026-05-04 03:03 | -27.55916 | -48.14061 | 35221 ft | 507 kts | 42° |
| 2026-05-04 03:04 | -27.51146 | -48.08209 | 35203 ft | 507 kts | 42° |
| 2026-05-04 03:04 | -27.46357 | -48.02343 | 35219 ft | 509 kts | 42° |
| 2026-05-04 03:05 | -27.41567 | -47.96482 | 35215 ft | 509 kts | 41° |
| 2026-05-04 03:05 | -27.36770 | -47.90627 | 35215 ft | 509 kts | 41° |
| 2026-05-04 03:06 | -27.31955 | -47.84794 | 35222 ft | 509 kts | 41° |
| 2026-05-04 03:06 | -27.27138 | -47.78965 | 35215 ft | 509 kts | 41° |
| 2026-05-04 03:07 | -27.22317 | -47.73135 | 35216 ft | 509 kts | 41° |
| 2026-05-04 03:07 | -27.17494 | -47.67311 | 35220 ft | 509 kts | 41° |
| 2026-05-04 03:08 | -27.12666 | -47.61488 | 35221 ft | 509 kts | 41° |
| 2026-05-04 03:08 | -27.07832 | -47.55667 | 35221 ft | 512 kts | 41° |
| 2026-05-04 03:09 | -27.02970 | -47.49819 | 35217 ft | 512 kts | 41° |
| 2026-05-04 03:09 | -26.98109 | -47.43979 | 35218 ft | 512 kts | 41° |
| 2026-05-04 03:10 | -26.93243 | -47.38143 | 35212 ft | 512 kts | 41° |
| 2026-05-04 03:10 | -26.88376 | -47.32313 | 35216 ft | 512 kts | 41° |
| 2026-05-04 03:11 | -26.83507 | -47.26494 | 35218 ft | 512 kts | 41° |
| 2026-05-04 03:11 | -26.78669 | -47.20717 | 35218 ft | 512 kts | 41° |
| 2026-05-04 03:12 | -26.73793 | -47.14903 | 35221 ft | 513 kts | 41° |
| 2026-05-04 03:12 | -26.68906 | -47.09090 | 35230 ft | 514 kts | 41° |
| 2026-05-04 03:13 | -26.63985 | -47.03257 | 35217 ft | 515 kts | 41° |
| 2026-05-04 03:13 | -26.59066 | -46.97435 | 35223 ft | 515 kts | 40° |
| 2026-05-04 03:14 | -26.54125 | -46.91623 | 35217 ft | 516 kts | 40° |
| 2026-05-04 03:14 | -26.49183 | -46.85819 | 35215 ft | 516 kts | 40° |
| 2026-05-04 03:15 | -26.44238 | -46.80017 | 35218 ft | 516 kts | 40° |
| 2026-05-04 03:15 | -26.39288 | -46.74216 | 35218 ft | 516 kts | 40° |
| 2026-05-04 03:16 | -26.34375 | -46.68466 | 35217 ft | 516 kts | 40° |
| 2026-05-04 03:16 | -26.29388 | -46.62639 | 35220 ft | 517 kts | 40° |
| 2026-05-04 03:17 | -26.24445 | -46.56870 | 35202 ft | 518 kts | 40° |
| 2026-05-04 03:17 | -26.19476 | -46.51077 | 35219 ft | 517 kts | 40° |
| 2026-05-04 03:18 | -26.14502 | -46.45286 | 35214 ft | 517 kts | 40° |
| 2026-05-04 03:18 | -26.09523 | -46.39497 | 35213 ft | 517 kts | 40° |
| 2026-05-04 03:19 | -26.04549 | -46.33721 | 35218 ft | 517 kts | 40° |
| 2026-05-04 03:19 | -25.99571 | -46.27950 | 35217 ft | 517 kts | 40° |
| 2026-05-04 03:20 | -25.94595 | -46.22188 | 35211 ft | 517 kts | 40° |
| 2026-05-04 03:20 | -25.89610 | -46.16422 | 35205 ft | 517 kts | 39° |
| 2026-05-04 03:21 | -25.84628 | -46.10668 | 35215 ft | 517 kts | 39° |
| 2026-05-04 03:21 | -25.79646 | -46.04921 | 35213 ft | 517 kts | 39° |
| 2026-05-04 03:22 | -25.74660 | -45.99177 | 35215 ft | 517 kts | 39° |
| 2026-05-04 03:22 | -25.69674 | -45.93440 | 35209 ft | 517 kts | 39° |
| 2026-05-04 03:23 | -25.64683 | -45.87706 | 35215 ft | 516 kts | 39° |
| 2026-05-04 03:23 | -25.59693 | -45.81984 | 35217 ft | 516 kts | 39° |
| 2026-05-04 03:24 | -25.54697 | -45.76263 | 35214 ft | 517 kts | 39° |
| 2026-05-04 03:24 | -25.49686 | -45.70531 | 35229 ft | 520 kts | 39° |
| 2026-05-04 03:25 | -25.44658 | -45.64785 | 35215 ft | 519 kts | 39° |
| 2026-05-04 03:25 | -25.39630 | -45.59048 | 35216 ft | 519 kts | 39° |
| 2026-05-04 03:26 | -25.34604 | -45.53320 | 35212 ft | 519 kts | 38° |
| 2026-05-04 03:26 | -25.29573 | -45.47593 | 35213 ft | 519 kts | 38° |
| 2026-05-04 03:27 | -25.24544 | -45.41877 | 35212 ft | 519 kts | 38° |
| 2026-05-04 03:27 | -25.19513 | -45.36166 | 35221 ft | 518 kts | 38° |
| 2026-05-04 03:28 | -25.14484 | -45.30463 | 35217 ft | 518 kts | 38° |
| 2026-05-04 03:28 | -25.09451 | -45.24764 | 35213 ft | 519 kts | 38° |
| 2026-05-04 03:29 | -25.04414 | -45.19067 | 35208 ft | 518 kts | 38° |
| 2026-05-04 03:29 | -24.99380 | -45.13380 | 35216 ft | 518 kts | 38° |
| 2026-05-04 03:30 | -24.94342 | -45.07697 | 35214 ft | 518 kts | 38° |
| 2026-05-04 03:30 | -24.89305 | -45.02022 | 35213 ft | 518 kts | 38° |
| 2026-05-04 03:31 | -24.84299 | -44.96388 | 35213 ft | 518 kts | 38° |
| 2026-05-04 03:31 | -24.79227 | -44.90685 | 35221 ft | 517 kts | 38° |
| 2026-05-04 03:32 | -24.74230 | -44.85076 | 35213 ft | 517 kts | 38° |
| 2026-05-04 03:32 | -24.69193 | -44.79430 | 35213 ft | 517 kts | 38° |
| 2026-05-04 03:33 | -24.64159 | -44.73791 | 35226 ft | 515 kts | 38° |
| 2026-05-04 03:33 | -24.59137 | -44.68174 | 35214 ft | 515 kts | 38° |
| 2026-05-04 03:34 | -24.54110 | -44.62558 | 35212 ft | 515 kts | 38° |
| 2026-05-04 03:34 | -24.48974 | -44.57135 | 35246 ft | 500 kts | 26° |
| 2026-05-04 03:34 | -24.46019 | -44.55231 | 35255 ft | 489 kts | 17° |
| 2026-05-04 03:35 | -24.42970 | -44.53591 | 35205 ft | 488 kts | 16° |
| 2026-05-04 03:35 | -24.36893 | -44.50295 | 35203 ft | 487 kts | 17° |
| 2026-05-04 03:36 | -24.30839 | -44.46926 | 35188 ft | 487 kts | 17° |
| 2026-05-04 03:36 | -24.24816 | -44.43556 | 34787 ft | 482 kts | 17° |
| 2026-05-04 03:36 | -24.21874 | -44.41897 | 34500 ft | 470 kts | 17° |
| 2026-05-04 03:37 | -24.18962 | -44.40268 | 33704 ft | 469 kts | 17° |
| 2026-05-04 03:37 | -24.16077 | -44.38654 | 33137 ft | 463 kts | 17° |
| 2026-05-04 03:37 | -24.13214 | -44.37064 | 32509 ft | 459 kts | 17° |
| 2026-05-04 03:37 | -24.10382 | -44.35491 | 31911 ft | 454 kts | 17° |
| 2026-05-04 03:38 | -24.07574 | -44.33931 | 31299 ft | 451 kts | 17° |
| 2026-05-04 03:38 | -24.04792 | -44.32382 | 30710 ft | 448 kts | 17° |
| 2026-05-04 03:38 | -24.02019 | -44.30840 | 30110 ft | 445 kts | 17° |
| 2026-05-04 03:38 | -23.99277 | -44.29313 | 29559 ft | 439 kts | 17° |
| 2026-05-04 03:39 | -23.96558 | -44.27798 | 28963 ft | 439 kts | 18° |
| 2026-05-04 03:39 | -23.93829 | -44.26284 | 28416 ft | 441 kts | 18° |
| 2026-05-04 03:39 | -23.91176 | -44.24574 | 28215 ft | 450 kts | 30° |
| 2026-05-04 03:39 | -23.88985 | -44.22118 | 28010 ft | 468 kts | 52° |
| 2026-05-04 03:40 | -23.87427 | -44.18961 | 28013 ft | 477 kts | 60° |
| 2026-05-04 03:40 | -23.86044 | -44.15659 | 27906 ft | 478 kts | 62° |
| 2026-05-04 03:40 | -23.84652 | -44.12369 | 27836 ft | 477 kts | 61° |
| 2026-05-04 03:40 | -23.83228 | -44.09096 | 27593 ft | 478 kts | 60° |
| 2026-05-04 03:41 | -23.81485 | -44.06057 | 27096 ft | 466 kts | 42° |
| 2026-05-04 03:41 | -23.79054 | -44.03859 | 26475 ft | 446 kts | 21° |
| 2026-05-04 03:41 | -23.76233 | -44.02784 | 25987 ft | 418 kts | 360° |
| 2026-05-04 03:41 | -23.73391 | -44.02643 | 25427 ft | 403 kts | 350° |
| 2026-05-04 03:42 | -23.70597 | -44.02737 | 24857 ft | 401 kts | 351° |
| 2026-05-04 03:42 | -23.67807 | -44.02727 | 24345 ft | 400 kts | 353° |
| 2026-05-04 03:42 | -23.65033 | -44.02621 | 23800 ft | 399 kts | 355° |
| 2026-05-04 03:42 | -23.62268 | -44.02472 | 23259 ft | 395 kts | 355° |
| 2026-05-04 03:43 | -23.59538 | -44.02309 | 22745 ft | 391 kts | 356° |
| 2026-05-04 03:43 | -23.56841 | -44.02143 | 22379 ft | 384 kts | 356° |
| 2026-05-04 03:43 | -23.54200 | -44.01974 | 22247 ft | 379 kts | 356° |
| 2026-05-04 03:43 | -23.51552 | -44.01809 | 22216 ft | 384 kts | 356° |
| 2026-05-04 03:44 | -23.48868 | -44.01641 | 22068 ft | 390 kts | 356° |
| 2026-05-04 03:44 | -23.46164 | -44.01467 | 21872 ft | 387 kts | 356° |
| 2026-05-04 03:44 | -23.43475 | -44.01295 | 21576 ft | 388 kts | 356° |
| 2026-05-04 03:44 | -23.40778 | -44.01127 | 21145 ft | 387 kts | 357° |
| 2026-05-04 03:45 | -23.38108 | -44.00955 | 20776 ft | 382 kts | 357° |
| 2026-05-04 03:45 | -23.35467 | -44.00788 | 20408 ft | 378 kts | 357° |
| 2026-05-04 03:45 | -23.32888 | -44.00625 | 20048 ft | 375 kts | 357° |
| 2026-05-04 03:45 | -23.30261 | -44.00459 | 19678 ft | 373 kts | 357° |
| 2026-05-04 03:46 | -23.27714 | -44.00301 | 19321 ft | 371 kts | 357° |
| 2026-05-04 03:46 | -23.25142 | -44.00139 | 18962 ft | 369 kts | 358° |
| 2026-05-04 03:46 | -23.22585 | -43.99978 | 18595 ft | 367 kts | 358° |
| 2026-05-04 03:46 | -23.20043 | -43.99819 | 18219 ft | 364 kts | 358° |
| 2026-05-04 03:47 | -23.17525 | -43.99659 | 17881 ft | 361 kts | 358° |
| 2026-05-04 03:47 | -23.15028 | -43.99503 | 17533 ft | 359 kts | 358° |
| 2026-05-04 03:47 | -23.12541 | -43.99348 | 17184 ft | 357 kts | 359° |
| 2026-05-04 03:47 | -23.10062 | -43.99191 | 16833 ft | 355 kts | 359° |
| 2026-05-04 03:48 | -23.08399 | -43.99088 | 16594 ft | 354 kts | 359° |
| 2026-05-04 03:48 | -23.05150 | -43.98885 | 16136 ft | 352 kts | 359° |
| 2026-05-04 03:48 | -23.03504 | -43.98781 | 15900 ft | 350 kts | 359° |
| 2026-05-04 03:48 | -23.01077 | -43.98630 | 15550 ft | 348 kts | 359° |
| 2026-05-04 03:49 | -22.98666 | -43.98477 | 15214 ft | 346 kts | 360° |
| 2026-05-04 03:49 | -22.96275 | -43.98326 | 14792 ft | 343 kts | 360° |
| 2026-05-04 03:49 | -22.93975 | -43.97859 | 14370 ft | 344 kts | 20° |
| 2026-05-04 03:49 | -22.92026 | -43.96385 | 13953 ft | 345 kts | 47° |
| 2026-05-04 03:50 | -22.90758 | -43.94192 | 13524 ft | 342 kts | 64° |
| 2026-05-04 03:50 | -22.89841 | -43.91824 | 13025 ft | 341 kts | 67° |
| 2026-05-04 03:50 | -22.88930 | -43.89464 | 12599 ft | 336 kts | 64° |
| 2026-05-04 03:50 | -22.87963 | -43.87166 | 12121 ft | 334 kts | 63° |
| 2026-05-04 03:51 | -22.86970 | -43.84907 | 11704 ft | 331 kts | 62° |
| 2026-05-04 03:51 | -22.85982 | -43.82681 | 11241 ft | 324 kts | 62° |
| 2026-05-04 03:51 | -22.85018 | -43.80518 | 10833 ft | 314 kts | 62° |
| 2026-05-04 03:51 | -22.84082 | -43.78417 | 10414 ft | 305 kts | 62° |
| 2026-05-04 03:52 | -22.83175 | -43.76385 | 10013 ft | 293 kts | 61° |
| 2026-05-04 03:52 | -22.82300 | -43.74433 | 9624 ft | 282 kts | 62° |
| 2026-05-04 03:52 | -22.81447 | -43.72534 | 9271 ft | 271 kts | 62° |
| 2026-05-04 03:52 | -22.80687 | -43.70703 | 8912 ft | 263 kts | 69° |
| 2026-05-04 03:53 | -22.80242 | -43.68819 | 8594 ft | 253 kts | 77° |
| 2026-05-04 03:53 | -22.79906 | -43.66979 | 8264 ft | 246 kts | 77° |
| 2026-05-04 03:53 | -22.79547 | -43.65211 | 7911 ft | 241 kts | 76° |
| 2026-05-04 03:53 | -22.79163 | -43.63469 | 7612 ft | 234 kts | 76° |
| 2026-05-04 03:54 | -22.78774 | -43.61775 | 7299 ft | 230 kts | 75° |
| 2026-05-04 03:54 | -22.78388 | -43.60111 | 6991 ft | 225 kts | 76° |
| 2026-05-04 03:54 | -22.78013 | -43.58506 | 6841 ft | 213 kts | 76° |
| 2026-05-04 03:54 | -22.77761 | -43.56973 | 6722 ft | 201 kts | 85° |
| 2026-05-04 03:55 | -22.77788 | -43.55500 | 6642 ft | 194 kts | 104° |
| 2026-05-04 03:55 | -22.78396 | -43.54214 | 6616 ft | 193 kts | 127° |
| 2026-05-04 03:55 | -22.78685 | -43.52829 | 6528 ft | 196 kts | 77° |
| 2026-05-04 03:55 | -22.78144 | -43.51486 | 6709 ft | 203 kts | 47° |
| 2026-05-04 03:56 | -22.76911 | -43.50819 | 6729 ft | 203 kts | 2° |
| 2026-05-04 03:56 | -22.75544 | -43.51173 | 6701 ft | 209 kts | 338° |
| 2026-05-04 03:56 | -22.74213 | -43.51780 | 6639 ft | 202 kts | 335° |
| 2026-05-04 03:56 | -22.72945 | -43.52439 | 6636 ft | 202 kts | 335° |
| 2026-05-04 03:57 | -22.71650 | -43.53029 | 6618 ft | 200 kts | 342° |
| 2026-05-04 03:57 | -22.70287 | -43.53244 | 6590 ft | 197 kts | 4° |
| 2026-05-04 03:57 | -22.68965 | -43.52896 | 6594 ft | 196 kts | 23° |
| 2026-05-04 03:57 | -22.67761 | -43.52195 | 6548 ft | 200 kts | 38° |
| 2026-05-04 03:58 | -22.66611 | -43.49508 | 5857 ft | 199 kts | 96° |
| 2026-05-04 03:58 | -22.66953 | -43.48080 | 5597 ft | 195 kts | 111° |
| 2026-05-04 03:58 | -22.67534 | -43.46763 | 5301 ft | 194 kts | 124° |
| 2026-05-04 03:59 | -22.68324 | -43.45590 | 5017 ft | 189 kts | 128° |
| 2026-05-04 03:59 | -22.69106 | -43.44506 | 4686 ft | 179 kts | 128° |
| 2026-05-04 03:59 | -22.69858 | -43.43453 | 4301 ft | 174 kts | 127° |
| 2026-05-04 03:59 | -22.70614 | -43.42440 | 3909 ft | 171 kts | 130° |
| 2026-05-04 04:00 | -22.71338 | -43.41431 | 3532 ft | 168 kts | 126° |
| 2026-05-04 04:00 | -22.71999 | -43.40402 | 3163 ft | 165 kts | 125° |
| 2026-05-04 04:00 | -22.72654 | -43.39410 | 2872 ft | 156 kts | 126° |
| 2026-05-04 04:00 | -22.73263 | -43.38497 | 2673 ft | 144 kts | 126° |
| 2026-05-04 04:01 | -22.73827 | -43.37640 | 2475 ft | 137 kts | 126° |
| 2026-05-04 04:01 | -22.74378 | -43.36802 | 2312 ft | 137 kts | 126° |
| 2026-05-04 04:01 | -22.74932 | -43.35960 | 2191 ft | 136 kts | 126° |
| 2026-05-04 04:01 | -22.75479 | -43.35133 | 1977 ft | 136 kts | 126° |
| 2026-05-04 04:02 | -22.76017 | -43.34318 | 1782 ft | 131 kts | 126° |
| 2026-05-04 04:02 | -22.76543 | -43.33519 | 1610 ft | 130 kts | 126° |
| 2026-05-04 04:02 | -22.77072 | -43.32717 | 1442 ft | 132 kts | 126° |
| 2026-05-04 04:02 | -22.77605 | -43.31910 | 1274 ft | 132 kts | 126° |
| 2026-05-04 04:03 | -22.78135 | -43.31104 | 1092 ft | 133 kts | 125° |
| 2026-05-04 04:03 | -22.78679 | -43.30276 | 922 ft | 133 kts | 125° |
| 2026-05-04 04:03 | -22.79223 | -43.29454 | 753 ft | 135 kts | 124° |
| 2026-05-04 04:03 | -22.79770 | -43.28622 | 573 ft | 137 kts | 124° |
| 2026-05-04 04:04 | -22.80320 | -43.27788 | 373 ft | 136 kts | 124° |
| 2026-05-04 04:04 | -22.80859 | -43.26953 | 188 ft | 133 kts | 124° |
| 2026-05-04 04:04 | -22.81395 | -43.26138 | 52 ft | 133 kts | 124° |
| 2026-05-04 04:04 | -22.81885 | -43.25393 | 26 ft | 103 kts | 127° |
| 2026-05-04 04:05 | -22.82207 | -43.24914 | 21 ft | 58 kts | 125° |
| 2026-05-04 04:05 | -22.82331 | -43.24692 | 18 ft | 22 kts | 109° |
| 2026-05-04 04:05 | -22.82357 | -43.24584 | 18 ft | 12 kts | 98° |
| 2026-05-04 04:05 | -22.82360 | -43.24541 | 18 ft | 6 kts | 92° |
| 2026-05-04 04:06 | -22.82361 | -43.24488 | 17 ft | 8 kts | 93° |
| 2026-05-04 04:06 | -22.82337 | -43.24426 | 18 ft | 10 kts | 40° |
| 2026-05-04 04:06 | -22.82276 | -43.24379 | 19 ft | 11 kts | 37° |
| 2026-05-04 04:06 | -22.82224 | -43.24336 | 20 ft | 9 kts | 37° |
| 2026-05-04 04:07 | -22.82169 | -43.24297 | 20 ft | 10 kts | 22° |
| 2026-05-04 04:07 | -22.82109 | -43.24329 | 20 ft | 11 kts | 308° |
| 2026-05-04 04:07 | -22.82062 | -43.24399 | 20 ft | 12 kts | 306° |
| 2026-05-04 04:07 | -22.82010 | -43.24477 | 20 ft | 13 kts | 306° |
| 2026-05-04 04:08 | -22.81955 | -43.24560 | 21 ft | 13 kts | 305° |
| 2026-05-04 04:08 | -22.81892 | -43.24607 | 20 ft | 12 kts | 6° |
| 2026-05-04 04:08 | -22.81821 | -43.24561 | 21 ft | 12 kts | 29° |
| 2026-05-04 04:08 | -22.81745 | -43.24587 | 20 ft | 13 kts | 308° |
| 2026-05-04 04:09 | -22.81693 | -43.24669 | 21 ft | 14 kts | 304° |
| 2026-05-04 04:09 | -22.81635 | -43.24757 | 20 ft | 15 kts | 305° |
| 2026-05-04 04:09 | -22.81581 | -43.24842 | 21 ft | 12 kts | 301° |
| 2026-05-04 04:09 | -22.81531 | -43.24906 | 20 ft | 10 kts | 306° |
| 2026-05-04 04:10 | -22.81498 | -43.24961 | 20 ft | 8 kts | 309° |
| 2026-05-04 04:10 | -22.81460 | -43.24986 | 23 ft | 5 kts | 335° |
| 2026-05-04 04:10 | -22.81430 | -43.25000 | 22 ft | 5 kts | 335° |
| 2026-05-04 04:10 | -22.81392 | -43.25018 | 20 ft | 6 kts | 338° |
| 2026-05-04 04:11 | -22.81345 | -43.25032 | 23 ft | 8 kts | 350° |
| 2026-05-04 04:11 | -22.81293 | -43.25042 | 20 ft | 7 kts | 349° |
| 2026-05-04 04:11 | -22.81280 | -43.25044 | 20 ft | 0 kts | 349° |
| 2026-05-04 04:11 | -22.81277 | -43.25045 | 20 ft | 1 kts | 350° |
| 2026-05-04 04:12 | -22.81270 | -43.25046 | 20 ft | 1 kts | 349° |
| 2026-05-04 04:12 | -22.81262 | -43.25048 | 20 ft | 0 kts | 349° |